createdAt,value
2019-01-28T00:00:03.228Z,0
2019-01-28T00:01:13.349Z,0
2019-01-28T00:02:23.471Z,0
2019-01-28T00:03:33.613Z,0
2019-01-28T00:04:43.738Z,0
2019-01-28T00:05:53.858Z,0
2019-01-28T00:07:03.702Z,0
2019-01-28T00:08:13.585Z,0
2019-01-28T00:09:23.701Z,0
2019-01-28T00:10:33.850Z,0
2019-01-28T00:11:43.957Z,0
2019-01-28T00:12:54.091Z,0
2019-01-28T00:14:04.206Z,0
2019-01-28T00:15:14.315Z,0
2019-01-28T00:16:24.438Z,0
2019-01-28T00:17:34.668Z,0
2019-01-28T00:18:44.762Z,0
2019-01-28T00:19:54.627Z,0
2019-01-28T00:21:04.730Z,0
2019-01-28T00:22:14.847Z,0
2019-01-28T00:23:25.073Z,0
2019-01-28T00:24:35.199Z,0
2019-01-28T00:25:45.320Z,0
2019-01-28T00:26:55.440Z,0
2019-01-28T00:28:05.578Z,0
2019-01-28T00:29:15.445Z,0
2019-01-28T00:30:25.560Z,0
2019-01-28T00:31:35.674Z,0
2019-01-28T00:32:45.812Z,0
2019-01-28T00:33:55.932Z,0
2019-01-28T00:35:06.025Z,0
2019-01-28T00:36:16.143Z,0
2019-01-28T00:37:26.267Z,0
2019-01-28T00:38:36.398Z,0
2019-01-28T00:39:46.514Z,0
2019-01-28T00:40:56.614Z,0
2019-01-28T00:42:06.741Z,0
2019-01-28T00:43:16.843Z,0
2019-01-28T00:44:26.961Z,0
2019-01-28T00:45:37.084Z,0
2019-01-28T00:46:47.183Z,0
2019-01-28T00:47:57.286Z,0
2019-01-28T00:49:07.383Z,0
2019-01-28T00:50:17.496Z,0
2019-01-28T00:51:27.617Z,0
2019-01-28T00:52:37.468Z,0
2019-01-28T00:53:47.599Z,0
2019-01-28T00:54:57.461Z,0
2019-01-28T00:56:07.579Z,0
2019-01-28T00:57:17.688Z,0
2019-01-28T00:58:27.813Z,0
2019-01-28T00:59:37.935Z,0
2019-01-28T01:00:48.061Z,0
2019-01-28T01:01:58.186Z,0
2019-01-28T01:03:08.288Z,0
2019-01-28T01:04:18.401Z,0
2019-01-28T01:05:28.546Z,0
2019-01-28T01:06:38.684Z,0
2019-01-28T01:07:48.800Z,0
2019-01-28T01:08:58.901Z,0
2019-01-28T01:10:09.031Z,0
2019-01-28T01:11:19.140Z,0
2019-01-28T01:12:29.244Z,0
2019-01-28T01:13:38.991Z,0
2019-01-28T01:14:49.108Z,0
2019-01-28T01:15:58.969Z,0
2019-01-28T01:17:09.074Z,0
2019-01-28T01:18:19.184Z,0
2019-01-28T01:19:29.284Z,0
2019-01-28T01:20:39.160Z,0
2019-01-28T01:21:49.378Z,0
2019-01-28T01:23:00.461Z,0
2019-01-28T01:24:10.581Z,0
2019-01-28T01:25:20.690Z,0
2019-01-28T01:26:30.539Z,0
2019-01-28T01:27:40.647Z,0
2019-01-28T01:28:50.754Z,0
2019-01-28T01:30:00.869Z,0
2019-01-28T01:31:11.003Z,0
2019-01-28T01:32:21.109Z,0
2019-01-28T01:33:31.211Z,0
2019-01-28T01:34:41.324Z,0
2019-01-28T01:35:51.442Z,0
2019-01-28T01:37:01.553Z,0
2019-01-28T01:38:11.669Z,0
2019-01-28T01:39:21.779Z,0
2019-01-28T01:40:31.877Z,0
2019-01-28T01:41:41.987Z,0
2019-01-28T01:42:51.836Z,0
2019-01-28T01:44:01.957Z,0
2019-01-28T01:45:12.057Z,0
2019-01-28T01:46:22.169Z,0
2019-01-28T01:47:32.274Z,0
2019-01-28T01:48:42.133Z,0
2019-01-28T01:49:52.244Z,0
2019-01-28T01:51:02.344Z,0
2019-01-28T01:52:12.451Z,0
2019-01-28T01:53:22.554Z,0
2019-01-28T01:54:32.672Z,0
2019-01-28T01:55:42.778Z,0
2019-01-28T01:56:52.890Z,0
2019-01-28T01:58:02.981Z,0
2019-01-28T01:59:13.086Z,0
2019-01-28T02:00:23.202Z,0
2019-01-28T02:01:33.303Z,0
2019-01-28T02:02:43.400Z,0
2019-01-28T02:03:53.519Z,0
2019-01-28T02:05:03.638Z,0
2019-01-28T02:06:13.760Z,0
2019-01-28T02:07:23.882Z,0
2019-01-28T02:08:33.993Z,0
2019-01-28T02:09:44.121Z,0
2019-01-28T02:10:54.217Z,0
2019-01-28T02:12:04.316Z,0
2019-01-28T02:13:14.414Z,0
2019-01-28T02:14:24.531Z,0
2019-01-28T02:15:34.640Z,0
2019-01-28T02:16:44.747Z,0
2019-01-28T02:17:54.851Z,0
2019-01-28T02:19:04.962Z,0
2019-01-28T02:20:15.055Z,0
2019-01-28T02:21:25.155Z,0
2019-01-28T02:22:35.262Z,0
2019-01-28T02:23:46.800Z,0
2019-01-28T02:25:00.506Z,0
2019-01-28T02:26:10.635Z,0
2019-01-28T02:27:20.493Z,0
2019-01-28T02:28:30.668Z,0
2019-01-28T02:29:40.771Z,0
2019-01-28T02:30:50.881Z,0
2019-01-28T02:32:00.973Z,0
2019-01-28T02:33:11.072Z,0
2019-01-28T02:34:21.188Z,0
2019-01-28T02:35:31.305Z,0
2019-01-28T02:36:41.407Z,0
2019-01-28T02:37:51.529Z,0
2019-01-28T02:39:01.694Z,0
2019-01-28T02:40:11.829Z,0
2019-01-28T02:41:21.942Z,0
2019-01-28T02:42:32.049Z,0
2019-01-28T02:43:42.173Z,0
2019-01-28T02:44:52.257Z,0
2019-01-28T02:46:02.380Z,0
2019-01-28T02:47:12.495Z,0
2019-01-28T02:48:22.594Z,0
2019-01-28T02:49:32.714Z,0
2019-01-28T02:50:42.830Z,0
2019-01-28T02:51:52.960Z,0
2019-01-28T02:53:03.074Z,0
2019-01-28T02:54:13.229Z,0
2019-01-28T02:55:23.367Z,0
2019-01-28T02:56:33.479Z,0
2019-01-28T02:57:43.586Z,0
2019-01-28T02:58:53.694Z,0
2019-01-28T03:00:03.796Z,0
2019-01-28T03:01:13.306Z,0
2019-01-28T03:02:23.411Z,0
2019-01-28T03:03:33.517Z,0
2019-01-28T03:04:43.632Z,0
2019-01-28T03:05:53.755Z,0
2019-01-28T03:07:03.847Z,0
2019-01-28T03:08:13.942Z,0
2019-01-28T03:09:23.689Z,0
2019-01-28T03:10:33.801Z,0
2019-01-28T03:11:43.901Z,0
2019-01-28T03:12:54.006Z,0
2019-01-28T03:14:04.135Z,0
2019-01-28T03:15:13.972Z,0
2019-01-28T03:16:24.072Z,0
2019-01-28T03:17:36.378Z,0
2019-01-28T03:18:46.511Z,0
2019-01-28T03:19:56.625Z,0
2019-01-28T03:21:06.734Z,0
2019-01-28T03:22:16.847Z,0
2019-01-28T03:23:27.022Z,0
2019-01-28T03:24:37.123Z,0
2019-01-28T03:25:47.228Z,0
2019-01-28T03:26:57.095Z,0
2019-01-28T03:28:07.199Z,0
2019-01-28T03:29:17.291Z,0
2019-01-28T03:30:27.529Z,0
2019-01-28T03:31:37.662Z,0
2019-01-28T03:32:47.897Z,0
2019-01-28T03:33:58.006Z,0
2019-01-28T03:35:08.115Z,0
2019-01-28T03:36:18.218Z,0
2019-01-28T03:37:28.338Z,0
2019-01-28T03:38:38.431Z,0
2019-01-28T03:39:48.553Z,0
2019-01-28T03:40:58.738Z,0
2019-01-28T03:42:08.836Z,0
2019-01-28T03:43:18.937Z,0
2019-01-28T03:44:29.043Z,0
2019-01-28T03:45:39.151Z,0
2019-01-28T03:46:49.275Z,0
2019-01-28T03:47:59.406Z,0
2019-01-28T03:49:09.511Z,0
2019-01-28T03:50:19.619Z,0
2019-01-28T03:51:29.724Z,0
2019-01-28T03:52:39.836Z,0
2019-01-28T03:53:49.956Z,0
2019-01-28T03:55:00.049Z,0
2019-01-28T03:56:10.187Z,0
2019-01-28T03:57:20.308Z,0
2019-01-28T03:58:30.409Z,0
2019-01-28T03:59:40.526Z,0
2019-01-28T04:00:50.428Z,0
2019-01-28T04:02:00.317Z,0
2019-01-28T04:03:10.434Z,0
2019-01-28T04:04:20.542Z,0
2019-01-28T04:05:30.681Z,0
2019-01-28T04:06:40.789Z,0
2019-01-28T04:07:50.895Z,0
2019-01-28T04:09:00.376Z,0
2019-01-28T04:10:10.222Z,0
2019-01-28T04:11:20.095Z,0
2019-01-28T04:12:30.197Z,0
2019-01-28T04:13:40.317Z,0
2019-01-28T04:14:50.461Z,0
2019-01-28T04:16:00.562Z,0
2019-01-28T04:17:10.671Z,0
2019-01-28T04:18:20.782Z,0
2019-01-28T04:19:30.889Z,0
2019-01-28T04:20:40.999Z,0
2019-01-28T04:21:50.862Z,0
2019-01-28T04:23:00.992Z,0
2019-01-28T04:24:11.092Z,0
2019-01-28T04:25:20.942Z,0
2019-01-28T04:26:30.802Z,0
2019-01-28T04:27:40.714Z,0
2019-01-28T04:28:50.824Z,0
2019-01-28T04:30:00.927Z,0
2019-01-28T04:31:11.027Z,0
2019-01-28T04:32:21.140Z,0
2019-01-28T04:33:31.251Z,0
2019-01-28T04:34:41.350Z,0
2019-01-28T04:35:51.478Z,0
2019-01-28T04:37:01.578Z,0
2019-01-28T04:38:11.669Z,0
2019-01-28T04:39:21.768Z,0
2019-01-28T04:40:31.894Z,0
2019-01-28T04:41:41.984Z,0
2019-01-28T04:42:52.088Z,0
2019-01-28T04:44:02.188Z,0
2019-01-28T04:45:12.290Z,0
2019-01-28T04:46:22.406Z,0
2019-01-28T04:47:32.240Z,0
2019-01-28T04:48:42.341Z,0
2019-01-28T04:49:52.441Z,0
2019-01-28T04:51:02.548Z,0
2019-01-28T04:52:12.718Z,0
2019-01-28T04:53:22.849Z,0
2019-01-28T04:54:32.958Z,0
2019-01-28T04:55:43.063Z,0
2019-01-28T04:56:53.159Z,0
2019-01-28T04:58:03.290Z,0
2019-01-28T04:59:13.142Z,0
2019-01-28T05:00:23.246Z,0
2019-01-28T05:01:33.123Z,0
2019-01-28T05:02:43.220Z,0
2019-01-28T05:03:53.316Z,0
2019-01-28T05:05:03.448Z,0
2019-01-28T05:06:15.544Z,0
2019-01-28T05:07:25.643Z,0
2019-01-28T05:08:35.743Z,0
2019-01-28T05:09:45.833Z,0
2019-01-28T05:10:55.950Z,0
2019-01-28T05:12:06.101Z,0
2019-01-28T05:13:16.201Z,0
2019-01-28T05:14:26.300Z,0
2019-01-28T05:15:36.451Z,0
2019-01-28T05:16:46.562Z,0
2019-01-28T05:17:56.714Z,0
2019-01-28T05:19:06.817Z,0
2019-01-28T05:20:16.987Z,0
2019-01-28T05:21:27.095Z,0
2019-01-28T05:22:37.208Z,0
2019-01-28T05:23:47.316Z,0
2019-01-28T05:24:57.424Z,0
2019-01-28T05:26:07.537Z,0
2019-01-28T05:27:17.664Z,0
2019-01-28T05:28:27.762Z,0
2019-01-28T05:29:37.875Z,0
2019-01-28T05:30:48.017Z,0
2019-01-28T05:31:58.158Z,0
2019-01-28T05:33:08.702Z,0
2019-01-28T05:34:18.923Z,0
2019-01-28T05:35:29.032Z,0
2019-01-28T05:36:39.129Z,0
2019-01-28T05:37:49.255Z,0
2019-01-28T05:38:59.349Z,0
2019-01-28T05:40:09.459Z,0
2019-01-28T05:41:19.559Z,0
2019-01-28T05:42:29.687Z,0
2019-01-28T05:43:39.813Z,0
2019-01-28T05:44:50.156Z,0
2019-01-28T05:46:00.342Z,0
2019-01-28T05:47:10.456Z,0
2019-01-28T05:48:20.556Z,0
2019-01-28T05:49:30.770Z,0
2019-01-28T05:50:40.889Z,0
2019-01-28T05:51:50.991Z,0
2019-01-28T05:53:00.845Z,0
2019-01-28T05:54:10.950Z,0
2019-01-28T05:55:21.114Z,0
2019-01-28T05:56:30.952Z,0
2019-01-28T05:57:41.064Z,0
2019-01-28T05:58:51.173Z,0
2019-01-28T06:00:01.275Z,0
2019-01-28T06:01:11.388Z,0
2019-01-28T06:02:21.507Z,0
2019-01-28T06:03:31.649Z,0
2019-01-28T06:04:41.765Z,0
2019-01-28T06:05:51.891Z,0
2019-01-28T06:07:02.002Z,0
2019-01-28T06:08:12.728Z,0
2019-01-28T06:09:22.613Z,0
2019-01-28T06:10:32.731Z,0
2019-01-28T06:11:42.824Z,0
2019-01-28T06:12:52.928Z,0
2019-01-28T06:14:03.045Z,0
2019-01-28T06:15:13.145Z,0
2019-01-28T06:16:23.261Z,0
2019-01-28T06:17:41.476Z,0
2019-01-28T06:18:51.611Z,0
2019-01-28T06:20:01.712Z,0
2019-01-28T06:21:12.003Z,0
2019-01-28T06:22:21.857Z,0
2019-01-28T06:23:31.973Z,0
2019-01-28T06:24:42.108Z,0
2019-01-28T06:25:52.221Z,0
2019-01-28T06:27:02.333Z,0
2019-01-28T06:28:12.443Z,0
2019-01-28T06:29:22.553Z,0
2019-01-28T06:30:32.675Z,0
2019-01-28T06:31:43.008Z,0
2019-01-28T06:32:53.096Z,0
2019-01-28T06:34:03.239Z,0
2019-01-28T06:35:13.346Z,0
2019-01-28T06:36:23.452Z,0
2019-01-28T06:37:33.571Z,0
2019-01-28T06:38:43.677Z,0
2019-01-28T06:39:53.780Z,0
2019-01-28T06:41:03.908Z,0
2019-01-28T06:42:14.035Z,0
2019-01-28T06:43:24.131Z,0
2019-01-28T06:44:34.238Z,0
2019-01-28T06:45:44.372Z,0
2019-01-28T06:46:55.501Z,0
2019-01-28T06:48:05.634Z,0
2019-01-28T06:49:15.749Z,0
2019-01-28T06:50:25.860Z,0
2019-01-28T06:51:35.723Z,0
2019-01-28T06:52:45.821Z,0
2019-01-28T06:53:55.923Z,0
2019-01-28T06:55:06.018Z,0
2019-01-28T06:56:16.141Z,0
2019-01-28T06:57:26.243Z,0
2019-01-28T06:58:36.356Z,5
2019-01-28T06:59:46.459Z,5
2019-01-28T07:00:56.577Z,5
2019-01-28T07:02:06.689Z,5
2019-01-28T07:03:16.803Z,5
2019-01-28T07:04:26.901Z,5
2019-01-28T07:05:37.017Z,10
2019-01-28T07:06:47.137Z,10
2019-01-28T07:07:57.243Z,10
2019-01-28T07:09:07.344Z,10
2019-01-28T07:10:17.452Z,15
2019-01-28T07:11:27.303Z,15
2019-01-28T07:12:37.516Z,15
2019-01-28T07:13:47.624Z,15
2019-01-28T07:14:57.714Z,20
2019-01-28T07:16:07.821Z,20
2019-01-28T07:17:17.922Z,20
2019-01-28T07:18:27.657Z,20
2019-01-28T07:19:39.738Z,25
2019-01-28T07:20:49.845Z,25
2019-01-28T07:21:59.962Z,25
2019-01-28T07:23:10.061Z,30
2019-01-28T07:24:20.169Z,30
2019-01-28T07:25:30.286Z,35
2019-01-28T07:26:40.403Z,35
2019-01-28T07:27:50.496Z,35
2019-01-28T07:29:00.598Z,35
2019-01-28T07:30:10.900Z,35
2019-01-28T07:31:21.059Z,35
2019-01-28T07:32:30.911Z,40
2019-01-28T07:33:41.028Z,45
2019-01-28T07:34:51.129Z,45
2019-01-28T07:36:01.239Z,50
2019-01-28T07:37:11.368Z,50
2019-01-28T07:38:21.470Z,55
2019-01-28T07:39:31.581Z,55
2019-01-28T07:40:41.703Z,55
2019-01-28T07:41:51.994Z,60
2019-01-28T07:43:01.743Z,60
2019-01-28T07:44:11.861Z,60
2019-01-28T07:45:21.955Z,65
2019-01-28T07:46:32.110Z,70
2019-01-28T07:47:42.214Z,70
2019-01-28T07:48:52.320Z,70
2019-01-28T07:50:02.429Z,75
2019-01-28T07:51:12.534Z,75
2019-01-28T07:52:22.657Z,90
2019-01-28T07:53:32.773Z,90
2019-01-28T07:54:42.877Z,105
2019-01-28T07:55:52.978Z,110
2019-01-28T07:57:03.074Z,115
2019-01-28T07:58:13.167Z,120
2019-01-28T07:59:22.908Z,120
2019-01-28T08:00:33.003Z,130
2019-01-28T08:01:43.111Z,135
2019-01-28T08:02:53.249Z,145
2019-01-28T08:04:03.366Z,160
2019-01-28T08:05:13.475Z,155
2019-01-28T08:06:23.583Z,130
2019-01-28T08:07:33.693Z,180
2019-01-28T08:08:43.800Z,195
2019-01-28T08:09:53.921Z,185
2019-01-28T08:11:03.753Z,180
2019-01-28T08:12:13.870Z,275
2019-01-28T08:13:23.987Z,295
2019-01-28T08:14:34.145Z,325
2019-01-28T08:15:44.273Z,315
2019-01-28T08:16:54.375Z,275
2019-01-28T08:18:10.425Z,220
2019-01-28T08:19:21.146Z,220
2019-01-28T08:20:31.311Z,215
2019-01-28T08:21:41.542Z,220
2019-01-28T08:22:51.653Z,200
2019-01-28T08:24:01.518Z,200
2019-01-28T08:25:11.659Z,260
2019-01-28T08:26:21.756Z,210
2019-01-28T08:27:31.870Z,135
2019-01-28T08:28:46.558Z,145
2019-01-28T08:29:56.421Z,270
2019-01-28T08:31:06.589Z,350
2019-01-28T08:32:16.714Z,325
2019-01-28T08:33:26.848Z,135
2019-01-28T08:34:36.971Z,310
2019-01-28T08:35:47.157Z,180
2019-01-28T08:36:57.288Z,370
2019-01-28T08:38:07.407Z,300
2019-01-28T08:39:17.546Z,255
2019-01-28T08:40:27.655Z,220
2019-01-28T08:41:37.836Z,275
2019-01-28T08:42:47.946Z,385
2019-01-28T08:43:58.077Z,495
2019-01-28T08:45:08.214Z,240
2019-01-28T08:46:18.368Z,335
2019-01-28T08:47:28.468Z,260
2019-01-28T08:48:38.579Z,370
2019-01-28T08:49:48.682Z,290
2019-01-28T08:50:58.793Z,275
2019-01-28T08:52:08.911Z,300
2019-01-28T08:53:19.039Z,230
2019-01-28T08:54:29.155Z,210
2019-01-28T08:55:39.275Z,255
2019-01-28T08:56:49.371Z,250
2019-01-28T08:57:59.487Z,210
2019-01-28T08:59:09.680Z,205
2019-01-28T09:00:19.787Z,190
2019-01-28T09:01:29.959Z,190
2019-01-28T09:02:39.854Z,180
2019-01-28T09:03:49.996Z,170
2019-01-28T09:05:00.266Z,170
2019-01-28T09:06:10.424Z,180
2019-01-28T09:07:20.600Z,190
2019-01-28T09:08:30.715Z,200
2019-01-28T09:09:40.859Z,200
2019-01-28T09:10:50.971Z,200
2019-01-28T09:12:01.100Z,225
2019-01-28T09:13:11.218Z,235
2019-01-28T09:14:21.336Z,260
2019-01-28T09:15:31.462Z,355
2019-01-28T09:16:41.572Z,265
2019-01-28T09:17:51.684Z,645
2019-01-28T09:19:01.826Z,805
2019-01-28T09:20:13.697Z,875
2019-01-28T09:21:23.806Z,570
2019-01-28T09:22:33.927Z,525
2019-01-28T09:23:44.045Z,865
2019-01-28T09:24:54.174Z,885
2019-01-28T09:26:04.285Z,880
2019-01-28T09:27:14.392Z,885
2019-01-28T09:28:24.529Z,920
2019-01-28T09:29:34.431Z,920
2019-01-28T09:30:44.617Z,960
2019-01-28T09:31:55.608Z,1015
2019-01-28T09:33:05.744Z,795
2019-01-28T09:34:15.856Z,870
2019-01-28T09:35:25.972Z,780
2019-01-28T09:36:36.084Z,940
2019-01-28T09:37:46.197Z,1005
2019-01-28T09:38:56.338Z,950
2019-01-28T09:40:06.469Z,375
2019-01-28T09:41:16.650Z,735
2019-01-28T09:42:26.770Z,1010
2019-01-28T09:43:36.639Z,1065
2019-01-28T09:44:46.751Z,550
2019-01-28T09:45:56.853Z,1010
2019-01-28T09:47:06.990Z,780
2019-01-28T09:48:17.103Z,390
2019-01-28T09:49:27.286Z,500
2019-01-28T09:50:37.403Z,355
2019-01-28T09:51:47.520Z,265
2019-01-28T09:52:57.395Z,215
2019-01-28T09:54:07.275Z,210
2019-01-28T09:55:17.397Z,195
2019-01-28T09:56:27.365Z,220
2019-01-28T09:57:37.495Z,180
2019-01-28T09:58:47.647Z,160
2019-01-28T09:59:57.774Z,190
2019-01-28T10:01:07.988Z,195
2019-01-28T10:02:18.164Z,200
2019-01-28T10:03:28.330Z,165
2019-01-28T10:04:38.489Z,130
2019-01-28T10:05:48.622Z,120
2019-01-28T10:06:58.788Z,125
2019-01-28T10:08:08.919Z,115
2019-01-28T10:09:19.958Z,115
2019-01-28T10:10:29.708Z,100
2019-01-28T10:11:39.834Z,85
2019-01-28T10:12:49.953Z,100
2019-01-28T10:14:00.110Z,110
2019-01-28T10:15:10.274Z,105
2019-01-28T10:16:20.434Z,115
2019-01-28T10:17:30.565Z,90
2019-01-28T10:18:46.652Z,110
2019-01-28T10:19:56.789Z,140
2019-01-28T10:21:06.912Z,120
2019-01-28T10:22:17.054Z,90
2019-01-28T10:23:28.591Z,95
2019-01-28T10:24:38.719Z,120
2019-01-28T10:25:48.954Z,165
2019-01-28T10:26:59.080Z,155
2019-01-28T10:28:09.412Z,160
2019-01-28T10:29:19.620Z,160
2019-01-28T10:30:29.766Z,125
2019-01-28T10:31:39.895Z,140
2019-01-28T10:32:50.006Z,170
2019-01-28T10:34:00.104Z,175
2019-01-28T10:35:09.971Z,220
2019-01-28T10:36:22.670Z,200
2019-01-28T10:37:32.980Z,220
2019-01-28T10:38:42.836Z,225
2019-01-28T10:39:52.991Z,245
2019-01-28T10:41:03.137Z,250
2019-01-28T10:42:17.090Z,260
2019-01-28T10:43:27.221Z,210
2019-01-28T10:44:37.435Z,185
2019-01-28T10:45:47.879Z,170
2019-01-28T10:46:58.053Z,210
2019-01-28T10:48:10.097Z,220
2019-01-28T10:49:20.223Z,195
2019-01-28T10:50:30.583Z,215
2019-01-28T10:51:40.691Z,180
2019-01-28T10:52:50.806Z,160
2019-01-28T10:54:00.955Z,160
2019-01-28T10:55:11.058Z,170
2019-01-28T10:56:21.182Z,170
2019-01-28T10:57:31.292Z,155
2019-01-28T10:58:41.424Z,145
2019-01-28T10:59:51.547Z,135
2019-01-28T11:01:01.657Z,155
2019-01-28T11:02:11.851Z,165
2019-01-28T11:03:21.983Z,160
2019-01-28T11:04:32.121Z,145
2019-01-28T11:05:43.083Z,120
2019-01-28T11:06:53.214Z,110
2019-01-28T11:08:03.352Z,115
2019-01-28T11:09:13.545Z,110
2019-01-28T11:10:23.944Z,95
2019-01-28T11:11:34.311Z,95
2019-01-28T11:12:45.316Z,105
2019-01-28T11:13:55.528Z,115
2019-01-28T11:15:05.846Z,115
2019-01-28T11:16:16.088Z,120
2019-01-28T11:17:26.361Z,130
2019-01-28T11:18:36.706Z,140
2019-01-28T11:19:47.184Z,180
2019-01-28T11:20:57.580Z,190
2019-01-28T11:22:08.239Z,240
2019-01-28T11:23:19.005Z,250
2019-01-28T11:24:29.535Z,300
2019-01-28T11:25:39.982Z,390
2019-01-28T11:26:50.441Z,885
2019-01-28T11:28:00.954Z,470
2019-01-28T11:29:11.207Z,515
2019-01-28T11:30:21.681Z,620
2019-01-28T11:31:32.125Z,1115
2019-01-28T11:32:42.616Z,1075
2019-01-28T11:33:52.986Z,1100
2019-01-28T11:35:03.564Z,375
2019-01-28T11:36:15.616Z,320
2019-01-28T11:37:25.986Z,295
2019-01-28T11:38:36.451Z,290
2019-01-28T11:39:47.066Z,310
2019-01-28T11:40:57.639Z,345
2019-01-28T11:42:07.859Z,365
2019-01-28T11:43:18.402Z,370
2019-01-28T11:44:28.617Z,365
2019-01-28T11:45:38.987Z,335
2019-01-28T11:46:49.574Z,280
2019-01-28T11:48:00.171Z,235
2019-01-28T11:49:16.146Z,200
2019-01-28T11:50:26.321Z,185
2019-01-28T11:51:36.442Z,170
2019-01-28T11:52:46.615Z,155
2019-01-28T11:53:56.762Z,135
2019-01-28T11:55:06.925Z,125
2019-01-28T11:56:17.060Z,125
2019-01-28T11:57:27.258Z,125
2019-01-28T11:58:37.389Z,120
2019-01-28T11:59:47.277Z,125
2019-01-28T12:00:57.419Z,125
2019-01-28T12:02:07.563Z,125
2019-01-28T12:03:17.689Z,135
2019-01-28T12:04:28.906Z,135
2019-01-28T12:05:38.769Z,135
2019-01-28T12:06:48.907Z,140
2019-01-28T12:07:59.029Z,140
2019-01-28T12:09:09.184Z,135
2019-01-28T12:10:19.321Z,130
2019-01-28T12:11:29.195Z,130
2019-01-28T12:12:39.355Z,130
2019-01-28T12:13:49.488Z,130
2019-01-28T12:14:59.357Z,120
2019-01-28T12:16:09.474Z,100
2019-01-28T12:17:19.573Z,95
2019-01-28T12:18:29.693Z,95
2019-01-28T12:19:39.822Z,100
2019-01-28T12:20:58.089Z,90
2019-01-28T12:22:08.222Z,100
2019-01-28T12:23:18.345Z,110
2019-01-28T12:24:28.577Z,120
2019-01-28T12:25:38.718Z,130
2019-01-28T12:26:48.959Z,145
2019-01-28T12:27:59.090Z,135
2019-01-28T12:29:09.223Z,135
2019-01-28T12:30:19.089Z,135
2019-01-28T12:31:29.226Z,135
2019-01-28T12:32:39.385Z,145
2019-01-28T12:33:49.510Z,150
2019-01-28T12:34:59.477Z,160
2019-01-28T12:36:09.582Z,165
2019-01-28T12:37:19.704Z,175
2019-01-28T12:38:29.907Z,180
2019-01-28T12:39:40.027Z,180
2019-01-28T12:40:50.146Z,185
2019-01-28T12:41:59.997Z,190
2019-01-28T12:43:10.117Z,195
2019-01-28T12:44:20.247Z,205
2019-01-28T12:45:30.365Z,205
2019-01-28T12:46:40.738Z,205
2019-01-28T12:47:50.883Z,200
2019-01-28T12:49:01.028Z,200
2019-01-28T12:50:11.144Z,195
2019-01-28T12:51:21.513Z,195
2019-01-28T12:52:31.683Z,185
2019-01-28T12:53:42.465Z,185
2019-01-28T12:54:52.634Z,180
2019-01-28T12:56:02.767Z,160
2019-01-28T12:57:12.880Z,140
2019-01-28T12:58:23.006Z,150
2019-01-28T12:59:33.132Z,170
2019-01-28T13:00:43.240Z,185
2019-01-28T13:01:53.357Z,195
2019-01-28T13:03:03.469Z,190
2019-01-28T13:04:13.628Z,170
2019-01-28T13:05:23.749Z,160
2019-01-28T13:06:33.868Z,160
2019-01-28T13:07:44.014Z,175
2019-01-28T13:08:54.352Z,190
2019-01-28T13:10:04.477Z,205
2019-01-28T13:11:14.613Z,200
2019-01-28T13:12:24.732Z,200
2019-01-28T13:13:34.857Z,185
2019-01-28T13:14:44.990Z,175
2019-01-28T13:15:55.115Z,145
2019-01-28T13:17:05.226Z,115
2019-01-28T13:18:15.112Z,90
2019-01-28T13:19:32.457Z,90
2019-01-28T13:20:42.870Z,85
2019-01-28T13:21:53.021Z,90
2019-01-28T13:23:03.276Z,95
2019-01-28T13:24:13.396Z,95
2019-01-28T13:25:25.668Z,95
2019-01-28T13:26:35.807Z,95
2019-01-28T13:27:45.800Z,95
2019-01-28T13:28:55.937Z,95
2019-01-28T13:30:07.216Z,100
2019-01-28T13:31:17.335Z,105
2019-01-28T13:32:27.234Z,110
2019-01-28T13:33:37.378Z,110
2019-01-28T13:34:47.484Z,105
2019-01-28T13:35:57.615Z,100
2019-01-28T13:37:07.799Z,95
2019-01-28T13:38:17.927Z,85
2019-01-28T13:39:29.025Z,80
2019-01-28T13:40:39.201Z,75
2019-01-28T13:41:49.734Z,70
2019-01-28T13:42:59.843Z,65
2019-01-28T13:44:09.955Z,60
2019-01-28T13:45:20.078Z,60
2019-01-28T13:46:30.231Z,60
2019-01-28T13:47:40.346Z,60
2019-01-28T13:48:50.469Z,60
2019-01-28T13:50:00.594Z,55
2019-01-28T13:51:11.395Z,55
2019-01-28T13:52:21.568Z,55
2019-01-28T13:53:31.703Z,55
2019-01-28T13:54:41.872Z,55
2019-01-28T13:55:52.018Z,55
2019-01-28T13:57:02.150Z,50
2019-01-28T13:58:11.792Z,50
2019-01-28T13:59:26.187Z,45
2019-01-28T14:00:36.328Z,45
2019-01-28T14:01:46.447Z,45
2019-01-28T14:02:56.340Z,45
2019-01-28T14:04:08.180Z,45
2019-01-28T14:05:18.346Z,40
2019-01-28T14:06:28.738Z,40
2019-01-28T14:07:38.885Z,35
2019-01-28T14:08:49.040Z,35
2019-01-28T14:09:59.133Z,30
2019-01-28T14:11:09.282Z,30
2019-01-28T14:12:19.416Z,25
2019-01-28T14:13:29.588Z,25
2019-01-28T14:14:39.728Z,25
2019-01-28T14:15:49.872Z,25
2019-01-28T14:16:59.994Z,25
2019-01-28T14:18:10.108Z,25
2019-01-28T14:19:20.259Z,25
2019-01-28T14:20:30.521Z,25
2019-01-28T14:21:40.649Z,25
2019-01-28T14:22:50.784Z,20
2019-01-28T14:24:00.918Z,20
2019-01-28T14:25:10.702Z,20
2019-01-28T14:26:20.811Z,20
2019-01-28T14:27:30.980Z,20
2019-01-28T14:28:41.151Z,15
2019-01-28T14:29:51.270Z,15
2019-01-28T14:31:01.397Z,15
2019-01-28T14:32:11.593Z,15
2019-01-28T14:33:21.700Z,15
2019-01-28T14:34:31.567Z,15
2019-01-28T14:35:41.684Z,10
2019-01-28T14:36:51.815Z,10
2019-01-28T14:38:03.639Z,10
2019-01-28T14:39:20.878Z,10
2019-01-28T14:40:31.020Z,15
2019-01-28T14:41:41.243Z,10
2019-01-28T14:42:51.510Z,10
2019-01-28T14:44:01.635Z,10
2019-01-28T14:45:12.480Z,10
2019-01-28T14:46:22.670Z,10
2019-01-28T14:47:32.778Z,10
2019-01-28T14:48:48.969Z,10
2019-01-28T14:50:04.240Z,10
2019-01-28T14:51:14.360Z,10
2019-01-28T14:52:24.526Z,10
2019-01-28T14:53:34.680Z,10
2019-01-28T14:54:44.805Z,10
2019-01-28T14:55:54.931Z,10
2019-01-28T14:57:05.079Z,10
2019-01-28T14:58:18.970Z,10
2019-01-28T14:59:29.084Z,10
2019-01-28T15:00:39.240Z,10
2019-01-28T15:01:49.394Z,10
2019-01-28T15:02:59.550Z,10
2019-01-28T15:04:14.574Z,10
2019-01-28T15:05:24.756Z,10
2019-01-28T15:06:34.648Z,10
2019-01-28T15:07:45.009Z,10
2019-01-28T15:08:55.243Z,5
2019-01-28T15:10:05.388Z,5
2019-01-28T15:11:15.547Z,5
2019-01-28T15:12:25.733Z,5
2019-01-28T15:13:35.595Z,5
2019-01-28T15:14:45.707Z,5
2019-01-28T15:15:55.843Z,5
2019-01-28T15:17:05.990Z,5
2019-01-28T15:18:16.125Z,5
2019-01-28T15:19:26.287Z,5
2019-01-28T15:20:36.448Z,5
2019-01-28T15:21:46.573Z,5
2019-01-28T15:22:56.712Z,5
2019-01-28T15:24:06.832Z,5
2019-01-28T15:25:16.986Z,5
2019-01-28T15:26:27.484Z,5
2019-01-28T15:27:37.658Z,5
2019-01-28T15:28:47.791Z,5
2019-01-28T15:29:57.659Z,5
2019-01-28T15:31:08.155Z,5
2019-01-28T15:32:18.315Z,5
2019-01-28T15:33:28.762Z,5
2019-01-28T15:34:38.806Z,5
2019-01-28T15:35:48.999Z,5
2019-01-28T15:36:58.878Z,5
2019-01-28T15:38:09.042Z,5
2019-01-28T15:39:19.183Z,0
2019-01-28T15:40:29.371Z,0
2019-01-28T15:41:39.246Z,0
2019-01-28T15:42:49.417Z,0
2019-01-28T15:43:59.537Z,0
2019-01-28T15:45:16.141Z,0
2019-01-28T15:46:27.193Z,0
2019-01-28T15:47:37.330Z,0
2019-01-28T15:48:47.482Z,0
2019-01-28T15:49:57.633Z,0
2019-01-28T15:51:07.535Z,0
2019-01-28T15:52:17.416Z,0
2019-01-28T15:53:27.555Z,0
2019-01-28T15:54:37.709Z,0
2019-01-28T15:55:47.893Z,0
2019-01-28T15:56:58.069Z,0
2019-01-28T15:58:08.210Z,0
2019-01-28T15:59:18.353Z,0
2019-01-28T16:00:28.227Z,0
2019-01-28T16:01:38.370Z,0
2019-01-28T16:02:48.531Z,0
2019-01-28T16:04:00.632Z,0
2019-01-28T16:05:10.792Z,0
2019-01-28T16:06:20.977Z,0
2019-01-28T16:07:31.081Z,0
2019-01-28T16:08:41.204Z,0
2019-01-28T16:09:51.389Z,0
2019-01-28T16:11:01.538Z,0
2019-01-28T16:12:11.671Z,0
2019-01-28T16:13:21.813Z,0
2019-01-28T16:14:32.136Z,0
2019-01-28T16:15:42.261Z,0
2019-01-28T16:16:52.423Z,0
2019-01-28T16:18:02.577Z,0
2019-01-28T16:19:13.184Z,0
2019-01-28T16:20:28.275Z,0
2019-01-28T16:21:38.428Z,0
2019-01-28T16:22:48.581Z,0
2019-01-28T16:23:58.738Z,0
2019-01-28T16:25:08.879Z,0
2019-01-28T16:26:19.031Z,0
2019-01-28T16:27:28.907Z,0
2019-01-28T16:28:39.055Z,0
2019-01-28T16:29:49.181Z,0
2019-01-28T16:30:59.322Z,0
2019-01-28T16:32:09.497Z,0
2019-01-28T16:33:19.654Z,0
2019-01-28T16:34:30.037Z,0
2019-01-28T16:35:39.958Z,0
2019-01-28T16:36:50.095Z,0
2019-01-28T16:38:00.245Z,0
2019-01-28T16:39:10.418Z,0
2019-01-28T16:40:20.610Z,0
2019-01-28T16:41:30.499Z,0
2019-01-28T16:42:40.684Z,0
2019-01-28T16:43:50.901Z,0
2019-01-28T16:45:01.081Z,0
2019-01-28T16:46:11.240Z,0
2019-01-28T16:47:21.152Z,0
2019-01-28T16:48:31.567Z,0